Centerbrook, Connecticut
Current Conditions -  °F | °C
As of 11:15 PM on Sunday 21 Dec 2014 (Local Time) from KSNC Reporting Station
Unknown Precip Unknown Precip  
Wind Chill: 28°   Ceiling: 4400
Heat Index: 34°   Visibility: 10mi
Dew Point: 32°   Wind: 7mph
Humidity: 93%   Direction: 10°N
Pressure: 30.32"   Gusts: NA
Location:  41.35°N, 72.42°W
Report Text: KSNC 220415Z AUTO 01006KT 10SM UP FEW035 OVC044 01/00 A3032 RMK AO2
Loading
Personal Weather Stations






























Interactive Weather Map New forecast layout! Learn more

10-Day Weather Forecast

Advertisements
Track Severe Weather on mobile